sensor_id;sensor_type;location;lat;lon;timestamp;temperature;humidity
29031;DHT22;16122;50.236;11.734;2023-07-08T00:02:12;21.00;52.30
29031;DHT22;16122;50.236;11.734;2023-07-08T00:04:39;21.10;52.40
29031;DHT22;16122;50.236;11.734;2023-07-08T00:07:05;21.00;52.30
29031;DHT22;16122;50.236;11.734;2023-07-08T00:09:33;21.00;52.30
29031;DHT22;16122;50.236;11.734;2023-07-08T00:11:59;21.00;52.30
29031;DHT22;16122;50.236;11.734;2023-07-08T00:14:25;21.00;52.30
29031;DHT22;16122;50.236;11.734;2023-07-08T00:16:51;21.00;52.30
29031;DHT22;16122;50.236;11.734;2023-07-08T00:19:17;21.00;52.00
29031;DHT22;16122;50.236;11.734;2023-07-08T00:21:50;21.00;52.00
29031;DHT22;16122;50.236;11.734;2023-07-08T00:24:17;21.00;51.90
29031;DHT22;16122;50.236;11.734;2023-07-08T00:26:43;21.00;51.90
29031;DHT22;16122;50.236;11.734;2023-07-08T00:29:09;21.00;51.90
29031;DHT22;16122;50.236;11.734;2023-07-08T00:31:38;21.00;52.50
29031;DHT22;16122;50.236;11.734;2023-07-08T00:34:04;21.00;51.90
29031;DHT22;16122;50.236;11.734;2023-07-08T00:36:30;21.00;51.90
29031;DHT22;16122;50.236;11.734;2023-07-08T00:38:57;21.00;51.90
29031;DHT22;16122;50.236;11.734;2023-07-08T00:43:56;21.00;51.80
29031;DHT22;16122;50.236;11.734;2023-07-08T00:51:38;21.00;51.70
29031;DHT22;16122;50.236;11.734;2023-07-08T00:54:10;21.00;51.60
29031;DHT22;16122;50.236;11.734;2023-07-08T00:56:56;21.00;51.60
29031;DHT22;16122;50.236;11.734;2023-07-08T00:59:32;21.00;51.60
29031;DHT22;16122;50.236;11.734;2023-07-08T01:02:02;21.00;51.60
29031;DHT22;16122;50.236;11.734;2023-07-08T01:04:42;21.00;51.60
29031;DHT22;16122;50.236;11.734;2023-07-08T01:07:10;21.00;51.60
29031;DHT22;16122;50.236;11.734;2023-07-08T01:09:45;21.00;51.70
29031;DHT22;16122;50.236;11.734;2023-07-08T01:12:16;21.00;51.70
29031;DHT22;16122;50.236;11.734;2023-07-08T01:14:44;21.00;51.70
29031;DHT22;16122;50.236;11.734;2023-07-08T01:17:11;20.90;51.60
29031;DHT22;16122;50.236;11.734;2023-07-08T01:19:40;20.90;51.70
29031;DHT22;16122;50.236;11.734;2023-07-08T01:22:07;20.90;51.60
29031;DHT22;16122;50.236;11.734;2023-07-08T01:24:36;20.90;51.70
29031;DHT22;16122;50.236;11.734;2023-07-08T01:27:07;20.90;51.70
29031;DHT22;16122;50.236;11.734;2023-07-08T01:29:33;20.90;51.70
29031;DHT22;16122;50.236;11.734;2023-07-08T01:32:00;20.90;51.70
29031;DHT22;16122;50.236;11.734;2023-07-08T01:34:32;20.90;51.70
29031;DHT22;16122;50.236;11.734;2023-07-08T01:37:00;20.90;51.70
29031;DHT22;16122;50.236;11.734;2023-07-08T01:39:29;20.90;51.70
29031;DHT22;16122;50.236;11.734;2023-07-08T01:41:56;20.90;51.70
29031;DHT22;16122;50.236;11.734;2023-07-08T01:44:28;20.90;51.60
29031;DHT22;16122;50.236;11.734;2023-07-08T01:46:57;20.90;51.70
29031;DHT22;16122;50.236;11.734;2023-07-08T01:49:24;20.90;51.70
29031;DHT22;16122;50.236;11.734;2023-07-08T01:51:51;20.80;51.60
29031;DHT22;16122;50.236;11.734;2023-07-08T01:54:16;20.80;51.60
29031;DHT22;16122;50.236;11.734;2023-07-08T01:56:42;20.80;51.70
29031;DHT22;16122;50.236;11.734;2023-07-08T01:59:08;20.80;51.70
29031;DHT22;16122;50.236;11.734;2023-07-08T02:01:34;20.80;51.70
29031;DHT22;16122;50.236;11.734;2023-07-08T02:04:00;20.80;51.70
29031;DHT22;16122;50.236;11.734;2023-07-08T02:06:26;20.80;51.70
29031;DHT22;16122;50.236;11.734;2023-07-08T02:08:51;20.80;51.70
29031;DHT22;16122;50.236;11.734;2023-07-08T02:11:17;20.80;51.70
29031;DHT22;16122;50.236;11.734;2023-07-08T02:13:43;20.80;51.80
29031;DHT22;16122;50.236;11.734;2023-07-08T02:16:09;20.80;51.70
29031;DHT22;16122;50.236;11.734;2023-07-08T02:18:35;20.80;51.70
29031;DHT22;16122;50.236;11.734;2023-07-08T02:21:01;20.80;51.60
29031;DHT22;16122;50.236;11.734;2023-07-08T02:23:27;20.80;51.60
29031;DHT22;16122;50.236;11.734;2023-07-08T02:25:58;20.80;51.60
29031;DHT22;16122;50.236;11.734;2023-07-08T02:28:24;20.80;51.60
29031;DHT22;16122;50.236;11.734;2023-07-08T02:30:50;20.80;51.60
29031;DHT22;16122;50.236;11.734;2023-07-08T02:33:16;20.70;51.60
29031;DHT22;16122;50.236;11.734;2023-07-08T02:35:43;20.70;51.60
29031;DHT22;16122;50.236;11.734;2023-07-08T02:38:09;20.70;51.60
29031;DHT22;16122;50.236;11.734;2023-07-08T02:40:34;20.70;51.80
29031;DHT22;16122;50.236;11.734;2023-07-08T02:43:00;20.70;51.70
29031;DHT22;16122;50.236;11.734;2023-07-08T02:45:26;20.70;51.70
29031;DHT22;16122;50.236;11.734;2023-07-08T02:47:52;20.80;51.80
29031;DHT22;16122;50.236;11.734;2023-07-08T02:50:18;20.70;51.70
29031;DHT22;16122;50.236;11.734;2023-07-08T02:52:44;20.70;51.70
29031;DHT22;16122;50.236;11.734;2023-07-08T02:55:10;20.70;51.70
29031;DHT22;16122;50.236;11.734;2023-07-08T02:57:36;20.70;51.70
29031;DHT22;16122;50.236;11.734;2023-07-08T03:00:02;20.70;51.80
29031;DHT22;16122;50.236;11.734;2023-07-08T03:02:30;20.70;51.70
29031;DHT22;16122;50.236;11.734;2023-07-08T03:04:56;20.70;51.60
29031;DHT22;16122;50.236;11.734;2023-07-08T03:07:26;20.70;51.60
29031;DHT22;16122;50.236;11.734;2023-07-08T03:09:52;20.70;51.60
29031;DHT22;16122;50.236;11.734;2023-07-08T03:12:18;20.70;51.70
29031;DHT22;16122;50.236;11.734;2023-07-08T03:14:44;20.70;51.60
29031;DHT22;16122;50.236;11.734;2023-07-08T03:17:11;20.70;51.70
29031;DHT22;16122;50.236;11.734;2023-07-08T03:19:37;20.70;51.70
29031;DHT22;16122;50.236;11.734;2023-07-08T03:22:03;20.70;51.70
29031;DHT22;16122;50.236;11.734;2023-07-08T03:24:31;20.70;51.70
29031;DHT22;16122;50.236;11.734;2023-07-08T03:27:00;20.70;51.70
29031;DHT22;16122;50.236;11.734;2023-07-08T03:29:31;20.70;51.80
29031;DHT22;16122;50.236;11.734;2023-07-08T03:31:57;20.70;51.80
29031;DHT22;16122;50.236;11.734;2023-07-08T03:34:24;20.60;51.70
29031;DHT22;16122;50.236;11.734;2023-07-08T03:36:50;20.60;51.80
29031;DHT22;16122;50.236;11.734;2023-07-08T03:39:19;20.60;51.80
29031;DHT22;16122;50.236;11.734;2023-07-08T03:41:46;20.60;51.80
29031;DHT22;16122;50.236;11.734;2023-07-08T03:44:13;20.60;51.80
29031;DHT22;16122;50.236;11.734;2023-07-08T03:46:42;20.60;51.80
29031;DHT22;16122;50.236;11.734;2023-07-08T03:49:10;20.60;51.80
29031;DHT22;16122;50.236;11.734;2023-07-08T03:51:40;20.60;51.70
29031;DHT22;16122;50.236;11.734;2023-07-08T03:54:11;20.60;51.80
29031;DHT22;16122;50.236;11.734;2023-07-08T03:56:38;20.60;52.00
29031;DHT22;16122;50.236;11.734;2023-07-08T03:59:04;20.60;52.00
29031;DHT22;16122;50.236;11.734;2023-07-08T04:01:31;20.70;52.00
29031;DHT22;16122;50.236;11.734;2023-07-08T04:03:58;20.60;52.00
29031;DHT22;16122;50.236;11.734;2023-07-08T04:06:25;20.60;52.10
29031;DHT22;16122;50.236;11.734;2023-07-08T04:08:51;20.60;52.10
29031;DHT22;16122;50.236;11.734;2023-07-08T04:11:19;20.60;52.20
29031;DHT22;16122;50.236;11.734;2023-07-08T04:13:46;20.60;52.30
29031;DHT22;16122;50.236;11.734;2023-07-08T04:17:17;20.60;52.40
29031;DHT22;16122;50.236;11.734;2023-07-08T04:19:25;20.60;52.60
29031;DHT22;16122;50.236;11.734;2023-07-08T04:21:52;20.60;52.80
29031;DHT22;16122;50.236;11.734;2023-07-08T04:24:18;20.60;52.90
29031;DHT22;16122;50.236;11.734;2023-07-08T04:26:46;20.60;53.00
29031;DHT22;16122;50.236;11.734;2023-07-08T04:29:14;20.60;53.20
29031;DHT22;16122;50.236;11.734;2023-07-08T04:31:41;20.60;53.20
29031;DHT22;16122;50.236;11.734;2023-07-08T04:34:08;20.60;53.20
29031;DHT22;16122;50.236;11.734;2023-07-08T04:36:34;20.60;53.10
29031;DHT22;16122;50.236;11.734;2023-07-08T04:39:02;20.60;53.20
29031;DHT22;16122;50.236;11.734;2023-07-08T04:41:28;20.60;53.40
29031;DHT22;16122;50.236;11.734;2023-07-08T04:43:54;20.60;53.50
29031;DHT22;16122;50.236;11.734;2023-07-08T04:46:41;20.60;53.60
29031;DHT22;16122;50.236;11.734;2023-07-08T04:49:08;20.60;53.60
29031;DHT22;16122;50.236;11.734;2023-07-08T04:51:35;20.60;53.40
29031;DHT22;16122;50.236;11.734;2023-07-08T04:54:02;20.60;53.40
29031;DHT22;16122;50.236;11.734;2023-07-08T04:56:55;20.70;53.60
29031;DHT22;16122;50.236;11.734;2023-07-08T04:59:23;20.60;53.70
29031;DHT22;16122;50.236;11.734;2023-07-08T05:01:50;20.70;53.80
29031;DHT22;16122;50.236;11.734;2023-07-08T05:04:20;20.70;54.00
29031;DHT22;16122;50.236;11.734;2023-07-08T05:06:47;20.70;54.10
29031;DHT22;16122;50.236;11.734;2023-07-08T05:09:13;20.70;54.30
29031;DHT22;16122;50.236;11.734;2023-07-08T05:11:38;20.70;54.40
29031;DHT22;16122;50.236;11.734;2023-07-08T05:14:05;20.70;54.60
29031;DHT22;16122;50.236;11.734;2023-07-08T05:16:34;20.70;54.70
29031;DHT22;16122;50.236;11.734;2023-07-08T05:19:01;20.70;54.80
29031;DHT22;16122;50.236;11.734;2023-07-08T05:21:29;20.70;54.90
29031;DHT22;16122;50.236;11.734;2023-07-08T05:24:00;20.70;55.20
29031;DHT22;16122;50.236;11.734;2023-07-08T05:26:26;20.70;55.30
29031;DHT22;16122;50.236;11.734;2023-07-08T05:28:51;20.70;55.30
29031;DHT22;16122;50.236;11.734;2023-07-08T05:31:17;20.70;55.30
29031;DHT22;16122;50.236;11.734;2023-07-08T05:33:43;20.70;55.50
29031;DHT22;16122;50.236;11.734;2023-07-08T05:36:09;20.80;55.70
29031;DHT22;16122;50.236;11.734;2023-07-08T05:38:34;20.80;55.90
29031;DHT22;16122;50.236;11.734;2023-07-08T05:41:00;20.80;55.90
29031;DHT22;16122;50.236;11.734;2023-07-08T05:43:27;20.80;55.50
29031;DHT22;16122;50.236;11.734;2023-07-08T05:45:58;20.80;56.00
29031;DHT22;16122;50.236;11.734;2023-07-08T05:48:24;20.80;55.90
29031;DHT22;16122;50.236;11.734;2023-07-08T05:50:50;20.80;55.90
29031;DHT22;16122;50.236;11.734;2023-07-08T05:53:18;20.80;56.50
29031;DHT22;16122;50.236;11.734;2023-07-08T05:55:44;20.80;56.20
29031;DHT22;16122;50.236;11.734;2023-07-08T05:58:10;20.80;55.90
29031;DHT22;16122;50.236;11.734;2023-07-08T06:00:41;20.90;55.70
29031;DHT22;16122;50.236;11.734;2023-07-08T06:03:08;20.90;55.50
29031;DHT22;16122;50.236;11.734;2023-07-08T06:05:34;20.90;55.70
29031;DHT22;16122;50.236;11.734;2023-07-08T06:07:59;20.90;55.70
29031;DHT22;16122;50.236;11.734;2023-07-08T06:10:25;20.90;56.00
29031;DHT22;16122;50.236;11.734;2023-07-08T06:12:51;20.90;55.80
29031;DHT22;16122;50.236;11.734;2023-07-08T06:15:17;20.90;55.00
29031;DHT22;16122;50.236;11.734;2023-07-08T06:17:43;20.90;54.60
29031;DHT22;16122;50.236;11.734;2023-07-08T06:20:09;20.90;55.40
29031;DHT22;16122;50.236;11.734;2023-07-08T06:22:34;20.90;54.80
29031;DHT22;16122;50.236;11.734;2023-07-08T06:25:00;20.90;54.70
29031;DHT22;16122;50.236;11.734;2023-07-08T06:27:26;20.90;54.70
29031;DHT22;16122;50.236;11.734;2023-07-08T06:29:53;20.90;54.60
29031;DHT22;16122;50.236;11.734;2023-07-08T06:32:19;20.90;54.70
29031;DHT22;16122;50.236;11.734;2023-07-08T06:34:44;20.90;54.50
29031;DHT22;16122;50.236;11.734;2023-07-08T06:37:10;20.90;54.70
29031;DHT22;16122;50.236;11.734;2023-07-08T06:39:36;20.90;54.50
29031;DHT22;16122;50.236;11.734;2023-07-08T06:42:02;20.90;54.30
29031;DHT22;16122;50.236;11.734;2023-07-08T06:44:31;20.90;54.30
29031;DHT22;16122;50.236;11.734;2023-07-08T06:46:57;20.90;54.30
29031;DHT22;16122;50.236;11.734;2023-07-08T06:49:23;20.90;54.20
29031;DHT22;16122;50.236;11.734;2023-07-08T06:51:49;20.90;54.10
29031;DHT22;16122;50.236;11.734;2023-07-08T06:54:14;21.00;54.10
29031;DHT22;16122;50.236;11.734;2023-07-08T06:56:41;21.00;54.20
29031;DHT22;16122;50.236;11.734;2023-07-08T06:59:08;20.90;54.00
29031;DHT22;16122;50.236;11.734;2023-07-08T07:01:34;20.90;53.90
29031;DHT22;16122;50.236;11.734;2023-07-08T07:04:02;20.90;54.00
29031;DHT22;16122;50.236;11.734;2023-07-08T07:06:29;21.00;54.10
29031;DHT22;16122;50.236;11.734;2023-07-08T07:08:55;20.90;54.00
29031;DHT22;16122;50.236;11.734;2023-07-08T07:11:21;21.00;54.10
29031;DHT22;16122;50.236;11.734;2023-07-08T07:13:46;21.00;54.10
29031;DHT22;16122;50.236;11.734;2023-07-08T07:16:12;20.90;54.10
29031;DHT22;16122;50.236;11.734;2023-07-08T07:18:38;21.00;54.20
29031;DHT22;16122;50.236;11.734;2023-07-08T07:21:04;21.00;54.20
29031;DHT22;16122;50.236;11.734;2023-07-08T07:23:30;20.90;54.20
29031;DHT22;16122;50.236;11.734;2023-07-08T07:25:56;21.00;54.20
29031;DHT22;16122;50.236;11.734;2023-07-08T07:28:23;21.00;54.30
29031;DHT22;16122;50.236;11.734;2023-07-08T07:30:56;21.00;54.30
29031;DHT22;16122;50.236;11.734;2023-07-08T07:33:22;20.90;54.20
29031;DHT22;16122;50.236;11.734;2023-07-08T07:35:48;21.00;54.30
29031;DHT22;16122;50.236;11.734;2023-07-08T07:38:15;21.00;54.30
29031;DHT22;16122;50.236;11.734;2023-07-08T07:40:42;21.00;54.30
29031;DHT22;16122;50.236;11.734;2023-07-08T07:43:08;21.00;54.40
29031;DHT22;16122;50.236;11.734;2023-07-08T07:45:33;21.00;54.30
29031;DHT22;16122;50.236;11.734;2023-07-08T07:47:59;21.00;54.50
29031;DHT22;16122;50.236;11.734;2023-07-08T07:50:26;21.00;54.40
29031;DHT22;16122;50.236;11.734;2023-07-08T07:52:52;21.00;54.40
29031;DHT22;16122;50.236;11.734;2023-07-08T07:55:18;21.00;54.60
29031;DHT22;16122;50.236;11.734;2023-07-08T07:57:44;21.10;54.60
29031;DHT22;16122;50.236;11.734;2023-07-08T08:00:14;21.10;54.60
29031;DHT22;16122;50.236;11.734;2023-07-08T08:02:42;21.00;54.50
29031;DHT22;16122;50.236;11.734;2023-07-08T08:05:08;21.00;54.50
29031;DHT22;16122;50.236;11.734;2023-07-08T08:07:34;21.00;54.50
29031;DHT22;16122;50.236;11.734;2023-07-08T08:10:02;21.10;54.70
29031;DHT22;16122;50.236;11.734;2023-07-08T08:12:28;21.00;54.70
29031;DHT22;16122;50.236;11.734;2023-07-08T08:14:55;21.10;54.70
29031;DHT22;16122;50.236;11.734;2023-07-08T08:17:20;21.10;54.40
29031;DHT22;16122;50.236;11.734;2023-07-08T08:19:46;21.10;54.40
29031;DHT22;16122;50.236;11.734;2023-07-08T08:22:12;21.10;54.40
29031;DHT22;16122;50.236;11.734;2023-07-08T08:24:38;21.10;54.60
29031;DHT22;16122;50.236;11.734;2023-07-08T08:27:04;21.10;54.40
29031;DHT22;16122;50.236;11.734;2023-07-08T08:29:30;21.20;54.10
29031;DHT22;16122;50.236;11.734;2023-07-08T08:31:56;21.20;54.10
29031;DHT22;16122;50.236;11.734;2023-07-08T08:34:21;21.20;53.50
29031;DHT22;16122;50.236;11.734;2023-07-08T08:36:47;21.20;53.40
29031;DHT22;16122;50.236;11.734;2023-07-08T08:39:13;21.20;53.50
29031;DHT22;16122;50.236;11.734;2023-07-08T08:41:41;21.30;53.20
29031;DHT22;16122;50.236;11.734;2023-07-08T08:44:14;21.30;53.30
29031;DHT22;16122;50.236;11.734;2023-07-08T08:49:37;21.20;53.60
29031;DHT22;16122;50.236;11.734;2023-07-08T08:52:05;21.20;54.40
29031;DHT22;16122;50.236;11.734;2023-07-08T08:54:31;21.30;53.50
29031;DHT22;16122;50.236;11.734;2023-07-08T08:57:20;21.30;53.10
29031;DHT22;16122;50.236;11.734;2023-07-08T08:59:55;21.30;52.90
29031;DHT22;16122;50.236;11.734;2023-07-08T09:05:01;21.20;52.70
29031;DHT22;16122;50.236;11.734;2023-07-08T09:07:28;21.20;53.10
29031;DHT22;16122;50.236;11.734;2023-07-08T09:10:04;21.20;53.30
29031;DHT22;16122;50.236;11.734;2023-07-08T09:12:34;21.20;53.30
29031;DHT22;16122;50.236;11.734;2023-07-08T09:15:14;21.30;53.00
29031;DHT22;16122;50.236;11.734;2023-07-08T09:17:41;21.20;52.80
29031;DHT22;16122;50.236;11.734;2023-07-08T09:25:32;21.30;52.40
29031;DHT22;16122;50.236;11.734;2023-07-08T09:27:58;21.40;51.80
29031;DHT22;16122;50.236;11.734;2023-07-08T09:30:24;21.40;51.10
29031;DHT22;16122;50.236;11.734;2023-07-08T09:32:54;21.30;51.00
29031;DHT22;16122;50.236;11.734;2023-07-08T09:35:26;21.30;51.50
29031;DHT22;16122;50.236;11.734;2023-07-08T09:37:53;21.30;51.50
29031;DHT22;16122;50.236;11.734;2023-07-08T09:40:22;21.30;50.40
29031;DHT22;16122;50.236;11.734;2023-07-08T09:42:51;21.30;50.40
29031;DHT22;16122;50.236;11.734;2023-07-08T09:45:20;21.30;50.50
29031;DHT22;16122;50.236;11.734;2023-07-08T09:47:46;21.30;50.90
29031;DHT22;16122;50.236;11.734;2023-07-08T09:50:18;21.30;51.10
29031;DHT22;16122;50.236;11.734;2023-07-08T09:52:45;21.50;49.40
29031;DHT22;16122;50.236;11.734;2023-07-08T09:55:11;21.60;48.70
29031;DHT22;16122;50.236;11.734;2023-07-08T09:57:38;21.50;48.60
29031;DHT22;16122;50.236;11.734;2023-07-08T10:00:28;21.40;48.80
29031;DHT22;16122;50.236;11.734;2023-07-08T10:03:02;21.40;49.50
29031;DHT22;16122;50.236;11.734;2023-07-08T10:05:38;21.30;50.30
29031;DHT22;16122;50.236;11.734;2023-07-08T10:08:18;21.30;49.80
29031;DHT22;16122;50.236;11.734;2023-07-08T10:10:47;21.30;50.50
29031;DHT22;16122;50.236;11.734;2023-07-08T10:18:48;21.30;50.60
29031;DHT22;16122;50.236;11.734;2023-07-08T10:26:46;21.30;50.50
29031;DHT22;16122;50.236;11.734;2023-07-08T10:34:57;21.30;50.70
29031;DHT22;16122;50.236;11.734;2023-07-08T10:40:24;21.30;50.90
29031;DHT22;16122;50.236;11.734;2023-07-08T10:45:50;21.30;50.90
29031;DHT22;16122;50.236;11.734;2023-07-08T10:53:41;21.30;50.90
29031;DHT22;16122;50.236;11.734;2023-07-08T11:04:37;21.50;48.20
29031;DHT22;16122;50.236;11.734;2023-07-08T11:07:19;21.40;48.30
29031;DHT22;16122;50.236;11.734;2023-07-08T11:10:02;21.40;48.40
29031;DHT22;16122;50.236;11.734;2023-07-08T11:12:35;21.40;48.90
29031;DHT22;16122;50.236;11.734;2023-07-08T11:15:35;21.40;48.70
29031;DHT22;16122;50.236;11.734;2023-07-08T11:21:12;21.40;49.00
29031;DHT22;16122;50.236;11.734;2023-07-08T11:23:56;21.50;48.90
29031;DHT22;16122;50.236;11.734;2023-07-08T11:28:58;21.50;49.20
29031;DHT22;16122;50.236;11.734;2023-07-08T11:31:27;21.40;49.20
29031;DHT22;16122;50.236;11.734;2023-07-08T11:33:55;21.50;49.20
29031;DHT22;16122;50.236;11.734;2023-07-08T11:36:23;21.50;49.60
29031;DHT22;16122;50.236;11.734;2023-07-08T11:38:58;21.50;49.90
29031;DHT22;16122;50.236;11.734;2023-07-08T11:41:27;21.50;50.10
29031;DHT22;16122;50.236;11.734;2023-07-08T11:44:04;21.50;50.30
29031;DHT22;16122;50.236;11.734;2023-07-08T11:46:33;21.50;50.50
29031;DHT22;16122;50.236;11.734;2023-07-08T11:49:06;21.50;50.60
29031;DHT22;16122;50.236;11.734;2023-07-08T11:51:39;21.50;50.80
29031;DHT22;16122;50.236;11.734;2023-07-08T11:54:14;21.50;51.00
29031;DHT22;16122;50.236;11.734;2023-07-08T11:56:58;21.50;51.10
29031;DHT22;16122;50.236;11.734;2023-07-08T11:59:26;21.50;51.20
29031;DHT22;16122;50.236;11.734;2023-07-08T12:02:16;21.50;51.20
29031;DHT22;16122;50.236;11.734;2023-07-08T12:05:00;21.50;51.00
29031;DHT22;16122;50.236;11.734;2023-07-08T12:10:16;21.50;51.00
29031;DHT22;16122;50.236;11.734;2023-07-08T12:12:43;21.50;50.50
29031;DHT22;16122;50.236;11.734;2023-07-08T12:15:22;21.50;50.50
29031;DHT22;16122;50.236;11.734;2023-07-08T12:17:49;21.50;50.80
29031;DHT22;16122;50.236;11.734;2023-07-08T12:20:25;21.50;51.00
29031;DHT22;16122;50.236;11.734;2023-07-08T12:22:51;21.60;50.30
29031;DHT22;16122;50.236;11.734;2023-07-08T12:25:22;21.60;50.30
29031;DHT22;16122;50.236;11.734;2023-07-08T12:27:48;21.60;50.10
29031;DHT22;16122;50.236;11.734;2023-07-08T12:30:15;21.60;49.40
29031;DHT22;16122;50.236;11.734;2023-07-08T12:32:42;21.60;49.40
29031;DHT22;16122;50.236;11.734;2023-07-08T12:35:23;21.60;49.60
29031;DHT22;16122;50.236;11.734;2023-07-08T12:37:52;21.70;49.10
29031;DHT22;16122;50.236;11.734;2023-07-08T12:40:21;21.70;49.10
29031;DHT22;16122;50.236;11.734;2023-07-08T12:42:48;21.70;48.70
29031;DHT22;16122;50.236;11.734;2023-07-08T12:45:16;21.70;48.40
29031;DHT22;16122;50.236;11.734;2023-07-08T12:47:43;21.70;48.30
29031;DHT22;16122;50.236;11.734;2023-07-08T12:50:10;21.70;48.30
29031;DHT22;16122;50.236;11.734;2023-07-08T12:52:36;21.70;48.50
29031;DHT22;16122;50.236;11.734;2023-07-08T12:55:03;21.70;49.40
29031;DHT22;16122;50.236;11.734;2023-07-08T12:57:29;21.70;49.20
29031;DHT22;16122;50.236;11.734;2023-07-08T12:59:55;21.70;49.50
29031;DHT22;16122;50.236;11.734;2023-07-08T13:02:22;21.70;49.70
29031;DHT22;16122;50.236;11.734;2023-07-08T13:04:56;21.60;49.80
29031;DHT22;16122;50.236;11.734;2023-07-08T13:07:34;21.60;49.90
29031;DHT22;16122;50.236;11.734;2023-07-08T13:10:02;21.60;50.00
29031;DHT22;16122;50.236;11.734;2023-07-08T13:12:28;21.60;50.20
29031;DHT22;16122;50.236;11.734;2023-07-08T13:14:57;21.60;50.30
29031;DHT22;16122;50.236;11.734;2023-07-08T13:17:25;21.60;50.50
29031;DHT22;16122;50.236;11.734;2023-07-08T13:19:51;21.60;50.50
29031;DHT22;16122;50.236;11.734;2023-07-08T13:22:19;21.60;50.60
29031;DHT22;16122;50.236;11.734;2023-07-08T13:24:46;21.60;50.60
29031;DHT22;16122;50.236;11.734;2023-07-08T13:27:25;21.60;50.60
29031;DHT22;16122;50.236;11.734;2023-07-08T13:29:56;21.60;50.70
29031;DHT22;16122;50.236;11.734;2023-07-08T13:32:31;21.60;50.80
29031;DHT22;16122;50.236;11.734;2023-07-08T13:34:57;21.70;50.90
29031;DHT22;16122;50.236;11.734;2023-07-08T13:37:23;21.60;50.80
29031;DHT22;16122;50.236;11.734;2023-07-08T13:39:53;21.60;50.80
29031;DHT22;16122;50.236;11.734;2023-07-08T13:42:19;21.60;50.80
29031;DHT22;16122;50.236;11.734;2023-07-08T13:44:46;21.60;50.80
29031;DHT22;16122;50.236;11.734;2023-07-08T13:47:26;21.60;50.80
29031;DHT22;16122;50.236;11.734;2023-07-08T13:50:11;21.60;50.90
29031;DHT22;16122;50.236;11.734;2023-07-08T13:52:43;21.60;50.90
29031;DHT22;16122;50.236;11.734;2023-07-08T13:55:16;21.60;50.80
29031;DHT22;16122;50.236;11.734;2023-07-08T13:57:44;21.70;50.70
29031;DHT22;16122;50.236;11.734;2023-07-08T14:00:11;21.60;50.60
29031;DHT22;16122;50.236;11.734;2023-07-08T14:02:41;21.60;50.40
29031;DHT22;16122;50.236;11.734;2023-07-08T14:05:10;21.60;50.30
29031;DHT22;16122;50.236;11.734;2023-07-08T14:07:37;21.60;50.30
29031;DHT22;16122;50.236;11.734;2023-07-08T14:10:11;21.70;50.40
29031;DHT22;16122;50.236;11.734;2023-07-08T14:12:37;21.60;50.40
29031;DHT22;16122;50.236;11.734;2023-07-08T14:15:02;21.60;50.50
29031;DHT22;16122;50.236;11.734;2023-07-08T14:17:28;21.60;50.40
29031;DHT22;16122;50.236;11.734;2023-07-08T14:19:54;21.70;50.60
29031;DHT22;16122;50.236;11.734;2023-07-08T14:22:29;21.70;50.50
29031;DHT22;16122;50.236;11.734;2023-07-08T14:24:55;21.70;50.60
29031;DHT22;16122;50.236;11.734;2023-07-08T14:27:22;21.70;50.60
29031;DHT22;16122;50.236;11.734;2023-07-08T14:29:50;21.70;50.60
29031;DHT22;16122;50.236;11.734;2023-07-08T14:34:56;21.70;50.80
29031;DHT22;16122;50.236;11.734;2023-07-08T14:37:22;21.70;50.70
29031;DHT22;16122;50.236;11.734;2023-07-08T14:39:49;21.70;50.70
29031;DHT22;16122;50.236;11.734;2023-07-08T14:42:16;21.70;50.60
29031;DHT22;16122;50.236;11.734;2023-07-08T14:44:48;21.70;50.70
29031;DHT22;16122;50.236;11.734;2023-07-08T14:47:17;21.70;50.70
29031;DHT22;16122;50.236;11.734;2023-07-08T14:49:43;21.70;50.80
29031;DHT22;16122;50.236;11.734;2023-07-08T14:52:09;21.60;50.70
29031;DHT22;16122;50.236;11.734;2023-07-08T14:54:35;21.70;51.40
29031;DHT22;16122;50.236;11.734;2023-07-08T14:57:02;21.70;51.00
29031;DHT22;16122;50.236;11.734;2023-07-08T14:59:32;21.70;51.00
29031;DHT22;16122;50.236;11.734;2023-07-08T15:01:58;21.70;51.00
29031;DHT22;16122;50.236;11.734;2023-07-08T15:04:25;21.70;51.00
29031;DHT22;16122;50.236;11.734;2023-07-08T15:06:52;21.70;51.00
29031;DHT22;16122;50.236;11.734;2023-07-08T15:09:19;21.70;51.00
29031;DHT22;16122;50.236;11.734;2023-07-08T15:11:46;21.70;51.00
29031;DHT22;16122;50.236;11.734;2023-07-08T15:14:21;21.70;51.10
29031;DHT22;16122;50.236;11.734;2023-07-08T15:16:48;21.70;51.10
29031;DHT22;16122;50.236;11.734;2023-07-08T15:19:14;21.70;51.10
29031;DHT22;16122;50.236;11.734;2023-07-08T15:21:40;21.80;51.10
29031;DHT22;16122;50.236;11.734;2023-07-08T15:24:11;21.70;51.00
29031;DHT22;16122;50.236;11.734;2023-07-08T15:26:50;21.70;51.00
29031;DHT22;16122;50.236;11.734;2023-07-08T15:29:21;21.70;50.80
29031;DHT22;16122;50.236;11.734;2023-07-08T15:31:47;21.80;50.90
29031;DHT22;16122;50.236;11.734;2023-07-08T15:34:18;21.80;51.40
29031;DHT22;16122;50.236;11.734;2023-07-08T15:36:45;21.80;50.70
29031;DHT22;16122;50.236;11.734;2023-07-08T15:39:11;21.80;50.70
29031;DHT22;16122;50.236;11.734;2023-07-08T15:41:39;21.80;50.80
29031;DHT22;16122;50.236;11.734;2023-07-08T15:44:10;21.80;50.70
29031;DHT22;16122;50.236;11.734;2023-07-08T15:46:45;21.80;50.70
29031;DHT22;16122;50.236;11.734;2023-07-08T15:49:19;21.80;50.90
29031;DHT22;16122;50.236;11.734;2023-07-08T15:51:46;21.80;50.90
29031;DHT22;16122;50.236;11.734;2023-07-08T15:54:12;21.80;51.00
29031;DHT22;16122;50.236;11.734;2023-07-08T15:56:39;21.80;51.00
29031;DHT22;16122;50.236;11.734;2023-07-08T15:59:07;21.80;51.10
29031;DHT22;16122;50.236;11.734;2023-07-08T16:01:35;21.80;51.20
29031;DHT22;16122;50.236;11.734;2023-07-08T16:04:02;21.80;51.20
29031;DHT22;16122;50.236;11.734;2023-07-08T16:06:28;21.80;51.30
29031;DHT22;16122;50.236;11.734;2023-07-08T16:08:54;21.80;51.30
29031;DHT22;16122;50.236;11.734;2023-07-08T16:11:29;21.80;51.40
29031;DHT22;16122;50.236;11.734;2023-07-08T16:13:56;21.80;51.50
29031;DHT22;16122;50.236;11.734;2023-07-08T16:16:23;21.80;51.50
29031;DHT22;16122;50.236;11.734;2023-07-08T16:18:49;21.80;51.50
29031;DHT22;16122;50.236;11.734;2023-07-08T16:21:15;21.80;51.50
29031;DHT22;16122;50.236;11.734;2023-07-08T16:23:42;21.80;51.60
29031;DHT22;16122;50.236;11.734;2023-07-08T16:26:09;21.80;51.60
29031;DHT22;16122;50.236;11.734;2023-07-08T16:28:45;21.80;51.60
29031;DHT22;16122;50.236;11.734;2023-07-08T16:31:13;21.90;51.60